Time;durP1;ratioP1;P1;durP2;ratioP2;P2;SDS_P1;SDS_P2;PMS_P1;PMS_P2;Temp;Humidity;BMP_temperature;BMP_pressure;BME280_temperature;BME280_humidity;BME280_pressure;Samples;Min_cycle;Max_cycle;Signal;HPM_P1;HPM_P2
2022/12/23 00:00:41;;;;;;;27.13;19.75;;;10.70;99.90;;;;;;4968920;28;20042;-74
2022/12/23 00:03:08;;;;;;;29.38;19.77;;;10.60;99.90;;;;;;4957307;28;20109;-73
2022/12/23 00:05:39;;;;;;;30.98;21.65;;;10.50;99.90;;;;;;4975760;28;20125;-76
2022/12/23 00:08:07;;;;;;;37.03;26.58;;;10.30;99.90;;;;;;4959185;28;20073;-74
2022/12/23 00:10:38;;;;;;;41.53;27.73;;;10.30;99.90;;;;;;4951697;28;20070;-73
2022/12/23 00:16:20;;;;;;;42.83;30.15;;;10.10;99.90;;;;;;4967455;28;20054;-73
2022/12/23 00:18:47;;;;;;;44.80;31.15;;;10.00;99.90;;;;;;4958238;28;20129;-74
2022/12/23 00:21:16;;;;;;;51.72;34.03;;;9.90;99.90;;;;;;4968538;28;20568;-73
2022/12/23 00:23:46;;;;;;;44.03;30.95;;;9.90;99.90;;;;;;4954809;28;20043;-75
2022/12/23 00:26:22;;;;;;;45.65;32.75;;;9.80;99.90;;;;;;4963851;28;20065;-73
2022/12/23 00:28:50;;;;;;;51.70;35.67;;;9.80;99.90;;;;;;4964606;28;20094;-75
2022/12/23 00:31:18;;;;;;;54.22;34.65;;;9.80;99.90;;;;;;4957331;28;20063;-74
2022/12/23 00:33:48;;;;;;;48.53;34.08;;;9.70;99.90;;;;;;4948440;28;20047;-74
2022/12/23 00:36:27;;;;;;;45.95;33.60;;;9.70;99.90;;;;;;4957712;28;20594;-73
2022/12/23 00:44:28;;;;;;;36.67;28.95;;;9.70;99.90;;;;;;4951948;28;20417;-73
2022/12/23 00:46:56;;;;;;;44.35;29.77;;;9.60;99.90;;;;;;4950057;28;20047;-75
2022/12/23 00:49:41;;;;;;;51.10;31.38;;;9.60;99.90;;;;;;4968660;28;20051;-75
2022/12/23 00:52:12;;;;;;;37.90;26.98;;;9.60;99.90;;;;;;4965885;28;20058;-76
2022/12/23 00:54:40;;;;;;;35.28;26.08;;;9.60;99.90;;;;;;4944556;28;20527;-75
2022/12/23 00:57:07;;;;;;;38.05;26.55;;;9.60;99.90;;;;;;4966466;28;20059;-75
2022/12/23 00:59:35;;;;;;;39.75;26.50;;;9.60;99.90;;;;;;4972782;28;20133;-75
2022/12/23 01:07:35;;;;;;;33.72;23.95;;;9.80;99.90;;;;;;4957218;28;20047;-75
2022/12/23 01:10:03;;;;;;;31.27;23.30;;;9.90;99.90;;;;;;4968542;28;20109;-75
2022/12/23 01:12:30;;;;;;;33.45;21.58;;;9.90;99.90;;;;;;4965541;28;20466;-75
2022/12/23 01:14:58;;;;;;;35.47;22.73;;;10.00;99.90;;;;;;4958226;28;20133;-75
2022/12/23 01:17:25;;;;;;;28.73;20.85;;;10.00;99.90;;;;;;4956844;28;20561;-75
2022/12/23 01:19:53;;;;;;;30.90;20.98;;;10.10;99.90;;;;;;4965263;28;20499;-75
2022/12/23 01:22:20;;;;;;;27.80;20.15;;;10.10;99.90;;;;;;4968077;28;20047;-76
2022/12/23 01:24:48;;;;;;;24.77;18.67;;;10.10;99.90;;;;;;4962627;28;20047;-75
2022/12/23 01:27:15;;;;;;;30.67;19.70;;;10.10;99.90;;;;;;4967786;28;20047;-75
2022/12/23 01:29:44;;;;;;;28.80;19.13;;;10.10;99.90;;;;;;4950371;28;20047;-76
2022/12/23 01:32:11;;;;;;;29.98;20.17;;;10.10;99.90;;;;;;4961721;28;20138;-76
2022/12/23 01:34:39;;;;;;;30.08;19.45;;;10.10;99.90;;;;;;4965728;28;20067;-74
2022/12/23 01:37:06;;;;;;;27.38;19.48;;;10.20;99.90;;;;;;4978952;28;20054;-74
2022/12/23 01:39:34;;;;;;;31.65;18.50;;;10.20;99.90;;;;;;4982277;28;20053;-76
2022/12/23 01:45:04;;;;;;;22.65;15.75;;;10.20;99.90;;;;;;4984952;28;20041;-75
2022/12/23 01:48:00;;;;;;;26.30;18.13;;;10.20;99.90;;;;;;4959833;28;20712;-75
2022/12/23 01:50:36;;;;;;;26.48;17.38;;;10.20;99.90;;;;;;4968604;28;20519;-75
2022/12/23 01:53:12;;;;;;;30.02;17.95;;;10.20;99.90;;;;;;4969869;28;20067;-76
2022/12/23 01:55:54;;;;;;;29.40;18.42;;;10.20;99.90;;;;;;4967875;28;20050;-76
2022/12/23 01:58:48;;;;;;;31.75;21.40;;;10.20;99.90;;;;;;4969620;28;20125;-76
2022/12/23 02:04:07;;;;;;;31.35;20.67;;;10.20;99.90;;;;;;4962627;28;20039;-75
2022/12/23 02:09:30;;;;;;;22.10;17.00;;;10.20;99.90;;;;;;4949818;28;20043;-75
2022/12/23 02:12:04;;;;;;;26.88;19.13;;;10.20;99.90;;;;;;4948307;28;20076;-75
2022/12/23 02:17:33;;;;;;;32.47;19.38;;;10.20;99.90;;;;;;4949806;28;20047;-75
2022/12/23 02:20:32;;;;;;;26.25;17.25;;;10.20;99.90;;;;;;4950119;28;20106;-75
2022/12/23 02:23:43;;;;;;;29.70;18.40;;;10.20;99.90;;;;;;4950725;28;20039;-75
2022/12/23 02:26:29;;;;;;;27.35;17.85;;;10.20;99.90;;;;;;4857952;29;20636;-75
2022/12/23 02:29:24;;;;;;;24.27;17.50;;;10.20;99.90;;;;;;4982999;28;20474;-75
2022/12/23 02:32:13;;;;;;;22.67;17.45;;;10.10;99.90;;;;;;4937023;28;20417;-75
2022/12/23 02:34:55;;;;;;;25.90;19.17;;;10.10;99.90;;;;;;4952024;28;20054;-75
2022/12/23 02:37:54;;;;;;;24.83;16.95;;;10.10;99.90;;;;;;4918251;29;20142;-75
2022/12/23 02:40:22;;;;;;;24.15;17.85;;;10.10;99.90;;;;;;4940630;29;20134;-76
2022/12/23 02:43:02;;;;;;;28.25;18.58;;;10.00;99.90;;;;;;4934085;29;20065;-75
2022/12/23 02:46:04;;;;;;;25.70;16.70;;;10.00;99.90;;;;;;4951168;28;20137;-75
2022/12/23 02:48:49;;;;;;;24.85;16.88;;;10.00;99.90;;;;;;4959513;28;20109;-75
2022/12/23 02:51:21;;;;;;;20.85;14.30;;;10.00;99.90;;;;;;4968350;28;20043;-75
2022/12/23 02:53:56;;;;;;;22.92;16.30;;;10.00;99.90;;;;;;4964822;28;20050;-76
2022/12/23 02:56:26;;;;;;;25.63;17.02;;;10.00;99.90;;;;;;4933750;29;20047;-76
2022/12/23 02:59:00;;;;;;;23.95;15.15;;;10.00;99.90;;;;;;4952842;28;20532;-76
2022/12/23 03:01:32;;;;;;;22.17;15.35;;;10.00;99.90;;;;;;4956200;28;20743;-75
2022/12/23 03:04:00;;;;;;;26.58;18.25;;;10.00;99.90;;;;;;4949649;28;20049;-75
2022/12/23 03:06:39;;;;;;;24.75;17.63;;;10.00;99.90;;;;;;4950439;28;20067;-75
2022/12/23 03:09:07;;;;;;;22.35;16.40;;;9.90;99.90;;;;;;4950999;28;20489;-75
2022/12/23 03:11:58;;;;;;;27.30;17.73;;;9.90;99.90;;;;;;4950788;28;20043;-75
2022/12/23 03:14:52;;;;;;;26.40;19.00;;;9.90;99.90;;;;;;4938162;28;20825;-75
2022/12/23 03:17:37;;;;;;;26.08;19.13;;;9.80;99.90;;;;;;4968479;28;20047;-76
2022/12/23 03:20:19;;;;;;;26.23;18.35;;;9.80;99.90;;;;;;4969407;28;20487;-75
2022/12/23 03:23:04;;;;;;;24.27;17.25;;;9.80;99.90;;;;;;4969425;28;20046;-76
2022/12/23 03:25:39;;;;;;;24.55;18.35;;;9.90;99.90;;;;;;4955092;28;20051;-75
2022/12/23 03:28:24;;;;;;;26.95;18.42;;;9.80;99.90;;;;;;4949187;29;20047;-75
2022/12/23 03:30:56;;;;;;;23.40;17.35;;;9.80;99.90;;;;;;4950373;28;20089;-75
2022/12/23 03:33:28;;;;;;;25.35;16.52;;;9.80;99.90;;;;;;4950521;28;20056;-76
2022/12/23 03:36:11;;;;;;;24.33;17.17;;;9.80;99.90;;;;;;4966258;28;20138;-75
2022/12/23 03:38:42;;;;;;;24.33;15.38;;;9.80;99.90;;;;;;4968720;28;20046;-75
2022/12/23 03:41:15;;;;;;;24.58;16.40;;;9.80;99.90;;;;;;4952521;28;20085;-75
2022/12/23 03:43:51;;;;;;;22.27;16.05;;;9.70;99.90;;;;;;4969521;28;20501;-75
2022/12/23 03:46:26;;;;;;;23.05;16.75;;;9.80;99.90;;;;;;4949529;28;20782;-76
2022/12/23 03:49:00;;;;;;;24.40;16.65;;;9.70;99.90;;;;;;4948960;29;20126;-75
2022/12/23 03:51:33;;;;;;;21.73;15.30;;;9.80;99.90;;;;;;4949254;29;20051;-75
2022/12/23 03:54:05;;;;;;;24.15;15.05;;;9.70;99.90;;;;;;4929874;28;20386;-76
2022/12/23 03:56:51;;;;;;;22.67;16.40;;;9.70;99.90;;;;;;4948680;29;20057;-75
2022/12/23 03:59:23;;;;;;;20.90;14.83;;;9.80;99.90;;;;;;4949516;29;20059;-75
2022/12/23 04:02:05;;;;;;;22.98;15.32;;;9.70;99.90;;;;;;4950132;28;20054;-75
2022/12/23 04:04:39;;;;;;;26.02;15.73;;;9.70;99.90;;;;;;4954437;28;20039;-75
2022/12/23 04:07:24;;;;;;;21.60;14.13;;;9.70;99.90;;;;;;4951958;28;20059;-75
2022/12/23 04:09:53;;;;;;;22.23;14.23;;;9.70;99.90;;;;;;4967585;28;20347;-75
2022/12/23 04:12:23;;;;;;;22.92;13.68;;;9.70;99.90;;;;;;4967844;28;20129;-76
2022/12/23 04:14:51;;;;;;;21.75;14.05;;;9.80;99.90;;;;;;4963557;28;20122;-75
2022/12/23 04:17:20;;;;;;;20.30;13.50;;;9.80;99.90;;;;;;4949108;28;20054;-75
2022/12/23 04:19:47;;;;;;;23.77;14.23;;;9.80;99.90;;;;;;4953929;28;20494;-75
2022/12/23 04:22:15;;;;;;;19.45;13.93;;;9.80;99.90;;;;;;4973087;28;20512;-75
2022/12/23 04:24:43;;;;;;;18.08;13.30;;;9.80;99.90;;;;;;4973087;28;20058;-75
2022/12/23 04:27:14;;;;;;;21.13;13.27;;;9.80;99.90;;;;;;4953800;28;20501;-75
2022/12/23 04:29:43;;;;;;;19.08;12.40;;;9.80;99.90;;;;;;4952067;29;20058;-75
2022/12/23 04:32:10;;;;;;;19.00;12.13;;;9.80;99.90;;;;;;4952015;29;20059;-75
2022/12/23 04:34:37;;;;;;;18.85;13.30;;;9.80;99.90;;;;;;4953247;28;20138;-75
2022/12/23 04:37:05;;;;;;;21.60;14.00;;;9.80;99.90;;;;;;4970795;28;20047;-75
2022/12/23 04:39:32;;;;;;;18.08;12.88;;;9.80;99.90;;;;;;4939394;28;20109;-75
2022/12/23 04:42:00;;;;;;;20.05;12.30;;;9.80;99.90;;;;;;4971142;28;20520;-75
2022/12/23 04:44:27;;;;;;;17.60;13.30;;;9.80;99.90;;;;;;4971652;28;20046;-75
2022/12/23 04:46:55;;;;;;;19.58;13.10;;;9.80;99.90;;;;;;4971233;28;20385;-75
2022/12/23 04:49:22;;;;;;;17.05;12.68;;;9.80;99.90;;;;;;4970359;28;20104;-75
2022/12/23 04:51:50;;;;;;;19.95;12.55;;;9.80;99.90;;;;;;4972433;28;20046;-75
2022/12/23 04:54:17;;;;;;;19.38;10.65;;;9.80;99.90;;;;;;4954985;28;20050;-76
2022/12/23 04:56:44;;;;;;;15.20;10.98;;;9.90;99.90;;;;;;4970403;28;20055;-75
2022/12/23 04:59:12;;;;;;;16.38;11.38;;;9.90;99.90;;;;;;4971880;28;20413;-75
2022/12/23 05:01:41;;;;;;;21.98;12.02;;;9.90;99.90;;;;;;4966677;28;20046;-75
2022/12/23 05:04:09;;;;;;;15.13;10.40;;;9.90;99.90;;;;;;4972057;28;20055;-75
2022/12/23 05:06:37;;;;;;;16.02;10.85;;;9.90;99.90;;;;;;4958717;28;20099;-75
2022/12/23 05:09:05;;;;;;;19.90;11.15;;;9.90;99.90;;;;;;4971178;28;20126;-75
2022/12/23 05:11:32;;;;;;;18.02;11.07;;;9.80;99.90;;;;;;4969954;28;20410;-75
2022/12/23 05:14:02;;;;;;;15.10;10.73;;;9.80;99.90;;;;;;4962778;28;20398;-75
2022/12/23 05:16:30;;;;;;;15.88;11.13;;;9.80;99.90;;;;;;4960190;28;20441;-75
2022/12/23 05:18:57;;;;;;;14.63;10.60;;;9.80;99.90;;;;;;4951414;29;20087;-75
2022/12/23 05:21:25;;;;;;;14.65;9.32;;;9.80;99.90;;;;;;4952937;28;20057;-75
2022/12/23 05:23:52;;;;;;;13.20;10.05;;;9.70;99.90;;;;;;4952105;28;20142;-75
2022/12/23 05:26:20;;;;;;;14.32;9.35;;;9.60;99.90;;;;;;4963249;28;20053;-75
2022/12/23 05:28:48;;;;;;;14.27;10.30;;;9.40;99.90;;;;;;4935281;28;20051;-75
2022/12/23 05:31:16;;;;;;;16.25;11.27;;;9.40;99.90;;;;;;4951690;29;20043;-75
2022/12/23 05:33:43;;;;;;;19.08;12.32;;;9.40;99.90;;;;;;4952333;28;20047;-75
2022/12/23 05:36:12;;;;;;;16.40;11.30;;;9.40;99.90;;;;;;4960344;28;20055;-76
2022/12/23 05:38:40;;;;;;;19.67;13.80;;;9.40;99.90;;;;;;4971514;28;20050;-75
2022/12/23 05:41:07;;;;;;;18.85;13.75;;;9.40;99.90;;;;;;4971538;28;20042;-75
2022/12/23 05:43:35;;;;;;;18.67;14.55;;;9.30;99.90;;;;;;4971209;28;20084;-75
2022/12/23 05:46:02;;;;;;;18.70;14.00;;;9.30;99.90;;;;;;4961866;28;20050;-75
2022/12/23 05:48:29;;;;;;;20.17;14.10;;;9.30;99.90;;;;;;4969103;28;20054;-75
2022/12/23 05:50:57;;;;;;;20.10;13.43;;;9.30;99.90;;;;;;4968911;28;20141;-75
2022/12/23 05:53:26;;;;;;;25.33;14.52;;;9.20;99.90;;;;;;4966292;28;20523;-75
2022/12/23 05:55:54;;;;;;;16.35;12.98;;;9.20;99.90;;;;;;4952759;28;20047;-76
2022/12/23 05:58:21;;;;;;;19.50;12.32;;;9.10;99.90;;;;;;4933714;28;20043;-77
2022/12/23 06:00:49;;;;;;;18.17;12.52;;;9.00;99.90;;;;;;4968871;28;20054;-76
2022/12/23 06:03:16;;;;;;;19.83;13.68;;;9.00;99.90;;;;;;4970502;28;20567;-74
2022/12/23 06:05:44;;;;;;;19.45;13.27;;;8.90;99.90;;;;;;4969692;28;20125;-74
2022/12/23 06:08:11;;;;;;;17.38;13.13;;;8.90;99.90;;;;;;4970924;28;20042;-74
2022/12/23 06:10:39;;;;;;;20.67;12.43;;;8.90;99.90;;;;;;4971545;28;20397;-74
2022/12/23 06:13:06;;;;;;;20.60;13.85;;;8.90;99.90;;;;;;4954048;28;20147;-74
2022/12/23 06:15:34;;;;;;;16.75;12.30;;;8.90;99.90;;;;;;4966282;28;20580;-74
2022/12/23 06:18:01;;;;;;;18.27;13.30;;;9.00;99.90;;;;;;4960736;28;20145;-75
2022/12/23 06:20:29;;;;;;;16.90;11.80;;;9.00;99.90;;;;;;4970826;28;20139;-74
2022/12/23 06:22:56;;;;;;;20.33;12.73;;;9.10;99.90;;;;;;4971256;28;20047;-74
2022/12/23 06:25:24;;;;;;;16.30;11.68;;;9.10;99.90;;;;;;4969016;28;20056;-75
2022/12/23 06:27:51;;;;;;;17.88;11.45;;;9.10;99.90;;;;;;4958586;28;20046;-74
2022/12/23 06:30:19;;;;;;;18.48;12.85;;;9.00;99.90;;;;;;4971349;28;20475;-74
2022/12/23 06:32:46;;;;;;;14.23;10.30;;;9.00;99.90;;;;;;4969448;28;20117;-75
2022/12/23 06:35:13;;;;;;;17.38;11.60;;;9.40;99.90;;;;;;4971054;28;20114;-74
2022/12/23 06:37:41;;;;;;;17.20;11.80;;;10.00;99.90;;;;;;4970620;28;20234;-75
2022/12/23 06:40:09;;;;;;;15.02;12.13;;;10.50;99.90;;;;;;4970881;28;20102;-74
2022/12/23 06:42:36;;;;;;;16.08;11.65;;;11.10;99.90;;;;;;4952263;28;20051;-75
2022/12/23 06:45:04;;;;;;;16.17;11.98;;;11.60;99.90;;;;;;4970885;28;20508;-74
2022/12/23 06:47:32;;;;;;;20.50;12.93;;;12.30;99.90;;;;;;4956780;28;20667;-74
2022/12/23 06:49:59;;;;;;;18.27;12.88;;;13.10;99.90;;;;;;4970045;28;20498;-74
2022/12/23 06:52:27;;;;;;;16.15;11.63;;;13.60;99.90;;;;;;4970463;28;20082;-74
2022/12/23 06:54:54;;;;;;;17.60;12.38;;;14.10;99.90;;;;;;4969100;28;20070;-75
2022/12/23 06:57:22;;;;;;;15.60;12.05;;;14.60;99.90;;;;;;4941241;28;20889;-74
2022/12/23 06:59:50;;;;;;;15.38;10.52;;;15.20;99.90;;;;;;4969054;28;20078;-74
2022/12/23 07:02:17;;;;;;;19.77;11.50;;;15.60;99.90;;;;;;4970398;28;20474;-74
2022/12/23 07:04:44;;;;;;;13.85;9.82;;;15.80;99.90;;;;;;4968809;28;20249;-75
2022/12/23 07:07:12;;;;;;;14.20;9.80;;;15.50;99.90;;;;;;4955574;28;20375;-74
2022/12/23 07:09:40;;;;;;;11.55;8.07;;;15.00;99.90;;;;;;4968340;28;20070;-75
2022/12/23 07:12:07;;;;;;;14.70;9.57;;;15.10;99.90;;;;;;4969469;28;20124;-74
2022/12/23 07:14:35;;;;;;;21.95;11.05;;;15.90;99.90;;;;;;4970258;28;20039;-74
2022/12/23 07:17:02;;;;;;;12.80;9.23;;;17.10;99.90;;;;;;4968985;28;20047;-74
2022/12/23 07:19:30;;;;;;;18.52;9.82;;;18.10;99.90;;;;;;4969252;28;20490;-74
2022/12/23 07:21:57;;;;;;;14.93;10.48;;;18.70;99.90;;;;;;4970973;28;20065;-75
2022/12/23 07:24:25;;;;;;;12.77;9.05;;;19.30;99.90;;;;;;4969244;28;20043;-74
2022/12/23 07:26:54;;;;;;;13.30;9.98;;;19.90;99.90;;;;;;4957856;28;20054;-74
2022/12/23 07:29:22;;;;;;;12.68;10.52;;;20.30;99.90;;;;;;4952938;28;20074;-74
2022/12/23 07:31:49;;;;;;;13.57;10.15;;;20.30;99.90;;;;;;4969645;28;20489;-74
2022/12/23 07:34:17;;;;;;;16.48;11.05;;;19.90;99.90;;;;;;4968704;28;20066;-75
2022/12/23 07:36:45;;;;;;;14.00;10.23;;;19.70;99.90;;;;;;4957023;28;20086;-74
2022/12/23 07:39:12;;;;;;;14.95;11.15;;;19.70;99.90;;;;;;4968067;28;20059;-74
2022/12/23 07:41:40;;;;;;;16.70;11.90;;;19.30;99.90;;;;;;4968495;28;20492;-75
2022/12/23 07:44:09;;;;;;;17.00;10.90;;;19.00;99.90;;;;;;4968843;28;20039;-75
2022/12/23 07:46:38;;;;;;;19.50;11.02;;;19.30;99.90;;;;;;4957555;28;20051;-74
2022/12/23 07:49:06;;;;;;;18.88;11.30;;;19.90;99.90;;;;;;4966860;28;20133;-74
2022/12/23 07:51:34;;;;;;;15.05;10.45;;;20.70;99.90;;;;;;4968778;28;20043;-74
2022/12/23 07:54:02;;;;;;;18.35;11.05;;;21.40;99.90;;;;;;4973086;28;20039;-73
2022/12/23 07:56:29;;;;;;;17.98;11.23;;;21.70;99.90;;;;;;4964458;28;20074;-74
2022/12/23 07:58:57;;;;;;;15.93;11.20;;;21.80;99.90;;;;;;4969486;28;20254;-73
2022/12/23 08:01:25;;;;;;;21.08;11.68;;;21.80;99.90;;;;;;4973817;28;20505;-73
2022/12/23 08:03:52;;;;;;;16.08;12.88;;;21.80;99.90;;;;;;4973432;28;20074;-73
2022/12/23 08:06:20;;;;;;;18.10;12.57;;;21.70;99.90;;;;;;4964159;28;20047;-73
2022/12/23 08:08:47;;;;;;;20.15;11.15;;;21.60;99.90;;;;;;4969689;28;20102;-73
2022/12/23 08:11:16;;;;;;;23.33;11.98;;;21.50;99.90;;;;;;4973654;28;20058;-74
2022/12/23 08:13:44;;;;;;;19.75;9.85;;;21.40;99.90;;;;;;4972148;28;20066;-72
2022/12/23 08:16:12;;;;;;;16.83;9.98;;;21.40;99.90;;;;;;4965096;28;20050;-73
2022/12/23 08:18:40;;;;;;;13.32;10.80;;;21.30;99.90;;;;;;4967723;28;20047;-72
2022/12/23 08:21:17;;;;;;;14.13;8.98;;;21.20;99.90;;;;;;4973247;28;20038;-72
2022/12/23 08:23:46;;;;;;;16.30;9.57;;;21.10;99.90;;;;;;4971924;28;20051;-73
2022/12/23 08:26:22;;;;;;;15.50;9.00;;;21.00;99.90;;;;;;4967015;28;20512;-73
2022/12/23 08:28:53;;;;;;;10.27;7.88;;;21.00;99.90;;;;;;4951964;28;20070;-73
2022/12/23 08:31:27;;;;;;;13.77;8.45;;;20.90;99.90;;;;;;4972201;28;20151;-73
2022/12/23 08:33:55;;;;;;;11.48;7.95;;;20.60;99.90;;;;;;4954107;28;20043;-73
2022/12/23 08:36:29;;;;;;;10.60;7.68;;;20.40;99.90;;;;;;4959504;28;20141;-73
2022/12/23 08:38:59;;;;;;;9.43;7.60;;;19.80;99.90;;;;;;4957050;28;20055;-73
2022/12/23 08:41:29;;;;;;;12.77;8.07;;;19.20;99.90;;;;;;4952769;29;20039;-73
2022/12/23 08:43:57;;;;;;;9.77;7.88;;;18.60;99.90;;;;;;4970671;28;20065;-73
2022/12/23 08:46:25;;;;;;;14.13;8.43;;;18.20;99.90;;;;;;4964784;28;20059;-73
2022/12/23 08:48:53;;;;;;;13.07;8.43;;;18.00;99.90;;;;;;4953572;28;20041;-73
2022/12/23 08:51:23;;;;;;;14.95;8.68;;;17.90;99.90;;;;;;4953578;28;20083;-72
2022/12/23 08:53:55;;;;;;;12.40;8.57;;;17.80;99.90;;;;;;4936399;29;20054;-74
2022/12/23 08:56:28;;;;;;;10.60;8.48;;;17.70;99.90;;;;;;4960581;28;20527;-73
2022/12/23 08:58:57;;;;;;;11.75;9.35;;;17.70;99.90;;;;;;4939721;28;20490;-73
2022/12/23 09:01:28;;;;;;;11.60;9.25;;;17.80;99.90;;;;;;4966580;28;20135;-73
2022/12/23 09:03:56;;;;;;;12.80;9.40;;;17.90;99.90;;;;;;4951722;28;20057;-73
2022/12/23 09:06:26;;;;;;;11.10;8.85;;;17.90;99.90;;;;;;4957872;28;20051;-73
2022/12/23 09:08:56;;;;;;;13.32;8.70;;;18.00;99.90;;;;;;4971106;28;20054;-72
2022/12/23 09:11:26;;;;;;;14.65;9.95;;;18.10;99.90;;;;;;4971434;28;20050;-73
2022/12/23 09:13:54;;;;;;;13.32;8.88;;;18.10;99.90;;;;;;4972314;28;20513;-73
2022/12/23 09:16:22;;;;;;;13.38;9.68;;;18.20;99.90;;;;;;4970466;28;20047;-73
2022/12/23 09:18:50;;;;;;;15.48;9.32;;;18.20;99.90;;;;;;4955346;28;20406;-74
2022/12/23 09:21:20;;;;;;;13.40;8.75;;;18.20;99.90;;;;;;4971143;28;20493;-75
2022/12/23 09:23:48;;;;;;;12.82;9.70;;;18.40;99.90;;;;;;4970464;28;20788;-77
2022/12/23 09:26:22;;;;;;;41.53;10.07;;;18.50;99.90;;;;;;4970293;28;20046;-75
2022/12/23 09:28:50;;;;;;;12.48;9.07;;;18.60;99.90;;;;;;4947152;28;20102;-76
2022/12/23 09:31:18;;;;;;;13.18;9.25;;;18.60;99.90;;;;;;4954406;28;20043;-76
2022/12/23 09:33:48;;;;;;;12.75;9.32;;;18.50;99.90;;;;;;4971691;28;20134;-74
2022/12/23 09:36:16;;;;;;;13.98;9.43;;;18.60;99.90;;;;;;4970044;28;20088;-74
2022/12/23 09:38:44;;;;;;;12.32;9.05;;;18.80;99.90;;;;;;4971523;28;20047;-77
2022/12/23 09:41:29;;;;;;;9.85;7.40;;;18.80;99.90;;;;;;4962507;28;20070;-76
2022/12/23 09:44:31;;;;;;;11.93;6.47;;;19.00;99.90;;;;;;4952738;28;20051;-75
2022/12/23 09:47:06;;;;;;;9.05;6.13;;;19.20;99.90;;;;;;4939770;28;20085;-76
2022/12/23 09:49:50;;;;;;;9.48;6.22;;;19.40;99.90;;;;;;4952947;28;20062;-74
2022/12/23 09:52:24;;;;;;;9.65;6.32;;;19.70;99.90;;;;;;4937258;29;20055;-77
2022/12/23 09:54:54;;;;;;;10.15;5.65;;;19.80;99.90;;;;;;4953426;28;20474;-76
2022/12/23 09:57:35;;;;;;;9.88;6.13;;;19.70;99.90;;;;;;4960540;28;20039;-77
2022/12/23 10:00:02;;;;;;;7.97;5.45;;;19.70;99.90;;;;;;4948303;29;20382;-74
2022/12/23 10:02:41;;;;;;;7.07;4.82;;;19.80;99.90;;;;;;4951063;29;20051;-77
2022/12/23 10:05:36;;;;;;;8.50;5.40;;;19.90;99.90;;;;;;4952436;28;20067;-77
2022/12/23 10:08:10;;;;;;;7.22;5.00;;;19.90;99.90;;;;;;4965623;28;20105;-75
2022/12/23 10:10:42;;;;;;;7.07;5.90;;;19.90;99.90;;;;;;4960230;28;20073;-77
2022/12/23 10:13:38;;;;;;;8.75;5.68;;;19.90;99.90;;;;;;4951200;29;20176;-78
2022/12/23 10:16:23;;;;;;;10.32;4.25;;;20.00;99.90;;;;;;4950702;28;20090;-75
2022/12/23 10:19:11;;;;;;;6.28;4.38;;;20.10;99.90;;;;;;4950949;29;20055;-77
2022/12/23 10:21:42;;;;;;;7.30;4.57;;;20.00;99.90;;;;;;4951548;28;20437;-78
2022/12/23 10:24:27;;;;;;;7.40;4.32;;;20.00;99.90;;;;;;4938697;28;20077;-78
2022/12/23 10:27:16;;;;;;;8.77;4.70;;;19.80;99.90;;;;;;4951406;29;20051;-78
2022/12/23 10:29:44;;;;;;;6.90;4.95;;;19.70;99.90;;;;;;4967696;28;20047;-78
2022/12/23 10:32:37;;;;;;;7.30;4.60;;;19.80;99.90;;;;;;4964357;28;20057;-77
2022/12/23 10:35:26;;;;;;;8.77;5.38;;;19.90;99.90;;;;;;4944657;28;20166;-77
2022/12/23 10:38:00;;;;;;;7.50;5.20;;;20.10;99.90;;;;;;4952202;28;20145;-77
2022/12/23 10:40:32;;;;;;;6.80;5.32;;;20.10;99.90;;;;;;4970417;28;20051;-77
2022/12/23 10:43:21;;;;;;;6.22;4.82;;;20.10;99.90;;;;;;4959443;28;20150;-78
2022/12/23 10:46:01;;;;;;;6.45;4.78;;;20.10;99.90;;;;;;4953277;29;20093;-79
2022/12/23 10:48:34;;;;;;;7.90;5.60;;;20.00;99.90;;;;;;4940391;28;20363;-77
2022/12/23 10:51:13;;;;;;;14.85;6.18;;;19.70;99.90;;;;;;4970924;28;20697;-78
2022/12/23 10:54:08;;;;;;;8.80;5.00;;;19.30;99.90;;;;;;4969537;28;20039;-76
2022/12/23 10:56:36;;;;;;;7.57;4.88;;;18.90;99.90;;;;;;4969904;28;20046;-76
2022/12/23 10:59:06;;;;;;;8.00;4.57;;;18.60;99.90;;;;;;4961968;28;20039;-79
2022/12/23 11:01:33;;;;;;;9.80;4.82;;;18.40;99.90;;;;;;4938039;28;20124;-77
2022/12/23 11:04:06;;;;;;;7.53;4.53;;;18.10;99.90;;;;;;4967052;28;20050;-78
2022/12/23 11:06:39;;;;;;;7.18;4.53;;;18.00;99.90;;;;;;4970523;28;20065;-78
2022/12/23 11:09:16;;;;;;;8.43;4.80;;;18.00;99.90;;;;;;4962184;28;20441;-77
2022/12/23 11:12:01;;;;;;;7.53;4.80;;;18.20;99.90;;;;;;4953621;28;20134;-78
2022/12/23 11:14:55;;;;;;;5.05;4.07;;;18.50;99.90;;;;;;4970470;28;20366;-79
2022/12/23 11:17:26;;;;;;;5.22;3.17;;;18.80;99.90;;;;;;4946368;29;20477;-79
2022/12/23 11:20:09;;;;;;;4.68;3.47;;;18.90;99.90;;;;;;4966670;28;20552;-79
2022/12/23 11:22:51;;;;;;;5.50;3.80;;;19.10;99.90;;;;;;4953593;28;20117;-78
2022/12/23 11:25:41;;;;;;;5.45;4.18;;;19.20;99.90;;;;;;4953557;28;20119;-78
2022/12/23 11:28:18;;;;;;;5.25;3.33;;;19.30;99.90;;;;;;4950848;28;20828;-78
2022/12/23 11:30:56;;;;;;;5.72;4.32;;;19.40;99.90;;;;;;4977603;28;20046;-78
2022/12/23 11:33:30;;;;;;;5.55;3.65;;;19.30;99.90;;;;;;4971287;28;20457;-79
2022/12/23 11:36:12;;;;;;;5.25;3.72;;;19.30;99.90;;;;;;4976801;28;20146;-78
2022/12/23 11:38:53;;;;;;;5.00;3.22;;;19.20;99.90;;;;;;4970705;28;20089;-77
2022/12/23 11:41:25;;;;;;;4.57;3.03;;;19.30;99.90;;;;;;4976061;28;20441;-78
2022/12/23 11:44:14;;;;;;;5.78;3.13;;;19.10;99.90;;;;;;4976886;28;20449;-78
2022/12/23 11:46:41;;;;;;;4.10;2.60;;;19.20;99.90;;;;;;4977526;28;20053;-77
2022/12/23 11:49:15;;;;;;;5.28;3.22;;;18.90;99.90;;;;;;4952512;28;20401;-77
2022/12/23 11:51:59;;;;;;;7.20;3.78;;;18.90;99.90;;;;;;4974797;28;20050;-77
2022/12/23 11:54:28;;;;;;;6.88;3.20;;;19.00;99.90;;;;;;4976085;28;20501;-78
2022/12/23 11:56:56;;;;;;;4.50;2.97;;;19.00;99.90;;;;;;4959124;28;20055;-77
2022/12/23 11:59:29;;;;;;;3.95;2.70;;;19.20;99.90;;;;;;4964356;28;20588;-79
2022/12/23 12:02:00;;;;;;;4.00;3.42;;;19.30;99.90;;;;;;4940450;29;20082;-79
2022/12/23 12:04:32;;;;;;;4.68;3.47;;;19.30;99.90;;;;;;4957150;28;20054;-81
2022/12/23 12:07:02;;;;;;;4.95;3.25;;;19.30;99.90;;;;;;4941684;28;20057;-78
2022/12/23 12:09:31;;;;;;;5.82;3.65;;;19.50;99.90;;;;;;4970560;28;20047;-77
2022/12/23 12:12:11;;;;;;;6.28;3.67;;;19.40;99.90;;;;;;4977308;28;20137;-78
2022/12/23 12:14:47;;;;;;;4.65;3.70;;;19.40;99.90;;;;;;4977704;28;20454;-80
2022/12/23 12:17:43;;;;;;;4.95;3.20;;;19.30;99.90;;;;;;4977114;28;20051;-78
2022/12/23 12:20:30;;;;;;;5.60;2.97;;;19.10;99.90;;;;;;4958616;28;20112;-81
2022/12/23 12:23:25;;;;;;;5.70;3.35;;;19.00;99.90;;;;;;4974839;28;20053;-78
2022/12/23 12:26:00;;;;;;;8.02;5.35;;;18.90;99.90;;;;;;4977236;28;20133;-79
2022/12/23 12:28:40;;;;;;;6.38;3.97;;;18.90;99.90;;;;;;4956391;29;20770;-79
2022/12/23 12:31:31;;;;;;;4.97;3.35;;;19.00;99.90;;;;;;4957115;28;20544;-79
2022/12/23 12:34:16;;;;;;;5.82;3.65;;;19.10;99.90;;;;;;4938516;29;20047;-78
2022/12/23 12:36:59;;;;;;;5.47;4.47;;;19.10;99.90;;;;;;4938887;29;20506;-78
2022/12/23 12:39:39;;;;;;;5.68;2.90;;;19.10;99.90;;;;;;4938009;29;20047;-78
2022/12/23 12:42:18;;;;;;;5.22;3.67;;;18.90;99.90;;;;;;4935585;29;20083;-78
2022/12/23 12:45:10;;;;;;;9.45;6.53;;;19.00;99.90;;;;;;4919402;29;20051;-78
2022/12/23 12:48:11;;;;;;;7.85;5.10;;;18.90;99.90;;;;;;4919303;29;20052;-78
2022/12/23 12:51:10;;;;;;;6.90;4.78;;;18.80;99.90;;;;;;4915720;29;20119;-78
2022/12/23 12:54:10;;;;;;;6.57;4.32;;;18.80;99.90;;;;;;4932902;29;20043;-81
2022/12/23 12:56:44;;;;;;;6.32;4.15;;;18.80;99.90;;;;;;4882270;29;20055;-78
2022/12/23 12:59:21;;;;;;;7.75;4.90;;;18.70;99.90;;;;;;4934577;29;20052;-78
2022/12/23 13:01:58;;;;;;;5.53;4.50;;;18.70;99.90;;;;;;4934576;29;20036;-78
2022/12/23 13:04:35;;;;;;;7.35;3.85;;;18.60;99.90;;;;;;4936126;29;20098;-77
2022/12/23 13:07:24;;;;;;;6.70;5.18;;;18.50;99.90;;;;;;4935824;29;20048;-77
2022/12/23 13:10:18;;;;;;;7.55;4.57;;;18.50;99.90;;;;;;4935924;29;20050;-77
2022/12/23 13:13:12;;;;;;;6.30;4.70;;;18.50;99.90;;;;;;4894105;29;20079;-77
2022/12/23 13:15:48;;;;;;;5.32;3.80;;;18.50;99.90;;;;;;4899343;29;20047;-79
2022/12/23 13:18:31;;;;;;;4.93;3.58;;;18.30;99.90;;;;;;4915880;29;20127;-78
2022/12/23 13:21:23;;;;;;;6.10;4.22;;;18.40;99.90;;;;;;4884112;29;20136;-77
2022/12/23 13:23:57;;;;;;;6.20;3.90;;;18.30;99.90;;;;;;4915299;29;20055;-78
2022/12/23 13:26:49;;;;;;;4.00;3.10;;;18.20;99.90;;;;;;4916481;29;20046;-78
2022/12/23 13:29:28;;;;;;;10.57;3.58;;;18.00;99.90;;;;;;4915287;29;20351;-78
2022/12/23 13:32:13;;;;;;;4.93;3.45;;;18.00;99.90;;;;;;4941881;28;20170;-79
2022/12/23 13:34:50;;;;;;;6.65;3.55;;;18.00;99.90;;;;;;4954920;29;20118;-78
2022/12/23 13:37:37;;;;;;;5.95;3.40;;;18.00;99.90;;;;;;4954564;29;20050;-79